createdAt,value
2024-01-04T00:00:27.961Z,91643.00
2024-01-04T00:01:27.983Z,91640.00
2024-01-04T00:02:28.006Z,91643.00
2024-01-04T00:03:28.088Z,91643.00
2024-01-04T00:04:28.057Z,91641.00
2024-01-04T00:05:28.128Z,91648.00
2024-01-04T00:06:28.106Z,91643.00
2024-01-04T00:07:28.119Z,91651.00
2024-01-04T00:08:28.148Z,91655.00
2024-01-04T00:09:28.159Z,91661.00
2024-01-04T00:10:28.175Z,91663.00
2024-01-04T00:11:28.208Z,91672.00
2024-01-04T00:12:28.216Z,91678.00
2024-01-04T00:13:28.238Z,91672.00
2024-01-04T00:14:28.259Z,91671.00
2024-01-04T00:15:28.290Z,91672.00
2024-01-04T00:16:28.308Z,91673.00
2024-01-04T00:17:28.348Z,91669.00
2024-01-04T00:18:28.518Z,91659.00
2024-01-04T00:19:28.455Z,91658.00
2024-01-04T00:20:28.395Z,91664.00
2024-01-04T00:21:28.413Z,91671.00
2024-01-04T00:22:28.446Z,91675.00
2024-01-04T00:23:28.466Z,91670.00
2024-01-04T00:24:28.485Z,91667.00
2024-01-04T00:25:28.502Z,91664.00
2024-01-04T00:26:28.533Z,91655.00
2024-01-04T00:27:28.545Z,91647.00
2024-01-04T00:28:28.632Z,91648.00
2024-01-04T00:29:28.679Z,91650.00
2024-01-04T00:30:28.713Z,91650.00
2024-01-04T00:31:28.657Z,91645.00
2024-01-04T00:32:28.773Z,91640.00
2024-01-04T00:33:28.830Z,91634.00
2024-01-04T00:34:28.886Z,91636.00
2024-01-04T00:35:28.742Z,91645.00
2024-01-04T00:36:28.770Z,91652.00
2024-01-04T00:37:28.801Z,91653.00
2024-01-04T00:38:28.828Z,91661.00
2024-01-04T00:39:28.859Z,91658.00
2024-01-04T00:40:28.886Z,91663.00
2024-01-04T00:41:28.911Z,91663.00
2024-01-04T00:42:28.931Z,91663.00
2024-01-04T00:43:28.964Z,91659.00
2024-01-04T00:44:28.998Z,91658.00
2024-01-04T00:45:29.009Z,91662.00
2024-01-04T00:46:29.041Z,91661.00
2024-01-04T00:47:29.079Z,91658.00
2024-01-04T00:48:29.338Z,91657.00
2024-01-04T00:49:29.103Z,91656.00
2024-01-04T00:50:29.107Z,91653.00
2024-01-04T00:51:29.132Z,91655.00
2024-01-04T00:52:29.151Z,91664.00
2024-01-04T00:53:29.168Z,91663.00
2024-01-04T00:54:29.197Z,91654.00
2024-01-04T00:55:29.205Z,91650.00
2024-01-04T00:56:29.226Z,91653.00
2024-01-04T00:57:29.243Z,91660.00
2024-01-04T00:58:29.269Z,91668.00
2024-01-04T00:59:29.288Z,91666.00
2024-01-04T01:00:29.302Z,91661.00
2024-01-04T01:01:29.328Z,91667.00
2024-01-04T01:02:29.360Z,91659.00
2024-01-04T01:03:29.530Z,91656.00
2024-01-04T01:04:29.381Z,91655.00
2024-01-04T01:05:29.408Z,91661.00
2024-01-04T01:06:29.487Z,91666.00
2024-01-04T01:07:29.440Z,91669.00
2024-01-04T01:08:29.474Z,91668.00
2024-01-04T01:09:29.497Z,91670.00
2024-01-04T01:10:29.528Z,91669.00
2024-01-04T01:11:29.539Z,91672.00
2024-01-04T01:12:29.659Z,91673.00
2024-01-04T01:13:29.597Z,91665.00
2024-01-04T01:14:29.617Z,91666.00
2024-01-04T01:15:29.651Z,91659.00
2024-01-04T01:16:29.665Z,91657.00
2024-01-04T01:17:29.773Z,91659.00
2024-01-04T01:18:29.800Z,91661.00
2024-01-04T01:19:29.837Z,91661.00
2024-01-04T01:20:29.757Z,91660.00
2024-01-04T01:21:29.787Z,91660.00
2024-01-04T01:22:29.802Z,91659.00
2024-01-04T01:23:29.842Z,91656.00
2024-01-04T01:24:29.850Z,91649.00
2024-01-04T01:25:29.869Z,91657.00
2024-01-04T01:26:29.889Z,91657.00
2024-01-04T01:27:29.906Z,91659.00
2024-01-04T01:28:29.938Z,91663.00
2024-01-04T01:29:29.978Z,91668.00
2024-01-04T01:30:30.044Z,91668.00
2024-01-04T01:31:30.002Z,91667.00
2024-01-04T01:32:30.049Z,91670.00
2024-01-04T01:33:30.200Z,91668.00
2024-01-04T01:34:30.080Z,91671.00
2024-01-04T01:35:30.074Z,91669.00
2024-01-04T01:36:30.109Z,91658.00
2024-01-04T01:37:30.119Z,91659.00
2024-01-04T01:38:30.159Z,91658.00
2024-01-04T01:39:30.185Z,91655.00
2024-01-04T01:40:30.192Z,91650.00
2024-01-04T01:41:30.199Z,91647.00
2024-01-04T01:42:30.227Z,91640.00
2024-01-04T01:43:30.253Z,91644.00
2024-01-04T01:44:30.280Z,91648.00
2024-01-04T01:45:30.304Z,91648.00
2024-01-04T01:46:30.382Z,91646.00
2024-01-04T01:47:30.378Z,91650.00
2024-01-04T01:48:30.538Z,91652.00
2024-01-04T01:49:30.520Z,91653.00
2024-01-04T01:50:30.418Z,91657.00
2024-01-04T01:51:30.438Z,91659.00
2024-01-04T01:52:30.457Z,91663.00
2024-01-04T01:53:30.485Z,91665.00
2024-01-04T01:54:30.513Z,91666.00
2024-01-04T01:55:30.521Z,91673.00
2024-01-04T01:56:30.555Z,91680.00
2024-01-04T01:57:30.563Z,91681.00
2024-01-04T01:58:30.602Z,91688.00
2024-01-04T01:59:30.628Z,91692.00
2024-01-04T02:00:30.645Z,91691.00
2024-01-04T02:01:30.696Z,91701.00
2024-01-04T02:02:30.708Z,91703.00
2024-01-04T02:03:30.804Z,91709.00
2024-01-04T02:04:30.739Z,91710.00
2024-01-04T02:05:30.922Z,91709.00
2024-01-04T02:06:30.864Z,91711.00
2024-01-04T02:07:30.808Z,91718.00
2024-01-04T02:08:30.838Z,91724.00
2024-01-04T02:09:30.854Z,91721.00
2024-01-04T02:10:31.869Z,91716.00
2024-01-04T02:11:30.849Z,91713.00
2024-01-04T02:12:30.866Z,91712.00
2024-01-04T02:13:30.858Z,91709.00
2024-01-04T02:14:30.851Z,91705.00
2024-01-04T02:15:30.873Z,91695.00
2024-01-04T02:16:30.863Z,91692.00
2024-01-04T02:17:30.868Z,91694.00
2024-01-04T02:18:30.937Z,91702.00
2024-01-04T02:19:30.881Z,91698.00
2024-01-04T02:20:30.842Z,91699.00
2024-01-04T02:21:30.846Z,91699.00
2024-01-04T02:22:30.849Z,91697.00
2024-01-04T02:23:30.842Z,91690.00
2024-01-04T02:24:30.842Z,91690.00
2024-01-04T02:25:30.831Z,91693.00
2024-01-04T02:26:30.829Z,91698.00
2024-01-04T02:27:30.836Z,91697.00
2024-01-04T02:28:30.851Z,91700.00
2024-01-04T02:29:30.833Z,91696.00
2024-01-04T02:30:30.877Z,91693.00
2024-01-04T02:31:30.856Z,91705.00
2024-01-04T02:32:30.944Z,91709.00
2024-01-04T02:33:30.999Z,91704.00
2024-01-04T02:34:30.962Z,91701.00
2024-01-04T02:35:30.939Z,91699.00
2024-01-04T02:36:30.983Z,91702.00
2024-01-04T02:37:31.001Z,91705.00
2024-01-04T02:38:31.007Z,91703.00
2024-01-04T02:39:31.048Z,91704.00
2024-01-04T02:40:31.050Z,91702.00
2024-01-04T02:41:31.072Z,91698.00
2024-01-04T02:42:31.105Z,91695.00
2024-01-04T02:43:31.118Z,91701.00
2024-01-04T02:44:31.146Z,91706.00
2024-01-04T02:45:31.185Z,91706.00
2024-01-04T02:46:31.213Z,91708.00
2024-01-04T02:47:31.282Z,91707.00
2024-01-04T02:48:31.402Z,91704.00
2024-01-04T02:49:31.306Z,91706.00
2024-01-04T02:50:31.303Z,91710.00
2024-01-04T02:51:31.313Z,91714.00
2024-01-04T02:52:31.348Z,91717.00
2024-01-04T02:53:31.373Z,91720.00
2024-01-04T02:54:31.395Z,91718.00
2024-01-04T02:55:31.410Z,91716.00
2024-01-04T02:56:32.646Z,91714.00
2024-01-04T02:57:31.447Z,91710.00
2024-01-04T02:58:31.476Z,91709.00
2024-01-04T02:59:31.503Z,91710.00
2024-01-04T03:00:31.527Z,91711.00
2024-01-04T03:01:31.545Z,91710.00
2024-01-04T03:02:31.575Z,91710.00
2024-01-04T03:03:31.612Z,91712.00
2024-01-04T03:04:31.617Z,91711.00
2024-01-04T03:05:31.644Z,91712.00
2024-01-04T03:06:31.668Z,91710.00
2024-01-04T03:07:31.692Z,91704.00
2024-01-04T03:08:31.725Z,91700.00
2024-01-04T03:09:31.738Z,91699.00
2024-01-04T03:10:31.777Z,91697.00
2024-01-04T03:11:31.800Z,91699.00
2024-01-04T03:12:31.821Z,91700.00
2024-01-04T03:13:31.865Z,91696.00
2024-01-04T03:14:31.922Z,91692.00
2024-01-04T03:15:31.902Z,91691.00
2024-01-04T03:16:31.927Z,91690.00
2024-01-04T03:17:31.993Z,91688.00
2024-01-04T03:18:32.206Z,91690.00
2024-01-04T03:19:32.072Z,91686.00
2024-01-04T03:20:32.050Z,91689.00
2024-01-04T03:21:32.052Z,91692.00
2024-01-04T03:22:32.088Z,91699.00
2024-01-04T03:23:32.125Z,91707.00
2024-01-04T03:24:32.142Z,91712.00
2024-01-04T03:25:32.185Z,91717.00
2024-01-04T03:26:32.231Z,91726.00
2024-01-04T03:27:32.238Z,91737.00
2024-01-04T03:28:32.269Z,91745.00
2024-01-04T03:29:32.322Z,91746.00
2024-01-04T03:30:32.420Z,91746.00
2024-01-04T03:31:32.350Z,91743.00
2024-01-04T03:32:32.587Z,91738.00
2024-01-04T03:33:32.480Z,91727.00
2024-01-04T03:34:32.545Z,91725.00
2024-01-04T03:35:32.530Z,91725.00
2024-01-04T03:36:32.487Z,91723.00
2024-01-04T03:37:32.513Z,91718.00
2024-01-04T03:38:32.677Z,91717.00
2024-01-04T03:39:32.556Z,91719.00
2024-01-04T03:40:32.590Z,91724.00
2024-01-04T03:41:32.740Z,91730.00
2024-01-04T03:42:32.643Z,91737.00
2024-01-04T03:43:32.694Z,91742.00
2024-01-04T03:44:32.804Z,91749.00
2024-01-04T03:45:33.715Z,91758.00
2024-01-04T03:46:32.705Z,91761.00
2024-01-04T03:47:32.804Z,91761.00
2024-01-04T03:48:33.809Z,91762.00
2024-01-04T03:49:32.721Z,91766.00
2024-01-04T03:50:32.802Z,91765.00
2024-01-04T03:51:32.721Z,91768.00
2024-01-04T03:52:32.722Z,91764.00
2024-01-04T03:53:32.708Z,91761.00
2024-01-04T03:54:32.690Z,91764.00
2024-01-04T03:55:32.693Z,91767.00
2024-01-04T03:56:32.695Z,91764.00
2024-01-04T03:57:32.680Z,91769.00
2024-01-04T03:58:32.685Z,91767.00
2024-01-04T03:59:32.695Z,91766.00
2024-01-04T04:00:32.716Z,91770.00
2024-01-04T04:01:32.725Z,91769.00
2024-01-04T04:02:32.678Z,91772.00
2024-01-04T04:03:32.788Z,91768.00
2024-01-04T04:04:32.678Z,91772.00
2024-01-04T04:05:32.736Z,91767.00
2024-01-04T04:06:32.693Z,91763.00
2024-01-04T04:07:32.753Z,91766.00
2024-01-04T04:08:32.744Z,91765.00
2024-01-04T04:09:32.848Z,91757.00
2024-01-04T04:10:32.780Z,91754.00
2024-01-04T04:11:32.812Z,91750.00
2024-01-04T04:12:32.831Z,91740.00
2024-01-04T04:13:32.849Z,91740.00
2024-01-04T04:14:32.892Z,91746.00
2024-01-04T04:15:32.918Z,91746.00
2024-01-04T04:16:32.924Z,91742.00
2024-01-04T04:17:32.974Z,91744.00
2024-01-04T04:18:33.060Z,91749.00
2024-01-04T04:19:33.035Z,91757.00
2024-01-04T04:20:33.112Z,91765.00
2024-01-04T04:21:33.064Z,91770.00
2024-01-04T04:22:33.060Z,91774.00
2024-01-04T04:23:33.267Z,91774.00
2024-01-04T04:24:33.105Z,91776.00
2024-01-04T04:25:33.144Z,91775.00
2024-01-04T04:26:33.254Z,91776.00
2024-01-04T04:27:33.186Z,91779.00
2024-01-04T04:28:33.205Z,91777.00
2024-01-04T04:29:33.280Z,91776.00
2024-01-04T04:30:33.346Z,91778.00
2024-01-04T04:31:33.284Z,91786.00
2024-01-04T04:32:33.368Z,91783.00
2024-01-04T04:33:33.474Z,91785.00
2024-01-04T04:34:33.376Z,91784.00
2024-01-04T04:35:36.846Z,91783.00
2024-01-04T04:36:34.431Z,91786.00
2024-01-04T04:37:33.389Z,91781.00
2024-01-04T04:38:33.474Z,91779.00
2024-01-04T04:39:33.391Z,91777.00
2024-01-04T04:40:33.393Z,91775.00
2024-01-04T04:41:33.441Z,91774.00
2024-01-04T04:42:33.404Z,91774.00
2024-01-04T04:43:33.420Z,91774.00
2024-01-04T04:44:33.476Z,91777.00
2024-01-04T04:45:33.419Z,91781.00
2024-01-04T04:46:33.429Z,91777.00
2024-01-04T04:47:33.482Z,91777.00
2024-01-04T04:48:33.536Z,91779.00
2024-01-04T04:49:33.627Z,91780.00
2024-01-04T04:50:33.567Z,91786.00
2024-01-04T04:51:33.458Z,91787.00
2024-01-04T04:52:33.452Z,91785.00
2024-01-04T04:53:33.642Z,91781.00
2024-01-04T04:54:33.450Z,91779.00
2024-01-04T04:55:40.816Z,91780.00
2024-01-04T04:56:40.833Z,91776.00
2024-01-04T04:57:40.806Z,91776.00
2024-01-04T04:58:40.821Z,91780.00
2024-01-04T04:59:40.847Z,91783.00
2024-01-04T05:00:40.841Z,91789.00
2024-01-04T05:01:40.819Z,91789.00
2024-01-04T05:02:40.834Z,91788.00
2024-01-04T05:03:40.906Z,91795.00
2024-01-04T05:04:40.829Z,91798.00
2024-01-04T05:05:40.937Z,91790.00
2024-01-04T05:06:40.928Z,91788.00
2024-01-04T05:07:40.847Z,91783.00
2024-01-04T05:08:40.877Z,91778.00
2024-01-04T05:09:40.855Z,91781.00
2024-01-04T05:10:40.864Z,91797.00
2024-01-04T05:11:40.911Z,91803.00
2024-01-04T05:12:41.025Z,91806.00
2024-01-04T05:13:40.896Z,91807.00
2024-01-04T05:14:40.889Z,91809.00
2024-01-04T05:15:40.873Z,91811.00
2024-01-04T05:16:40.878Z,91806.00
2024-01-04T05:17:40.961Z,91797.00
2024-01-04T05:18:41.052Z,91797.00
2024-01-04T05:19:40.919Z,91805.00
2024-01-04T05:20:40.944Z,91805.00
2024-01-04T05:21:40.919Z,91807.00
2024-01-04T05:22:40.913Z,91807.00
2024-01-04T05:23:40.933Z,91805.00
2024-01-04T05:24:40.922Z,91807.00
2024-01-04T05:25:42.143Z,91814.00
2024-01-04T05:26:40.976Z,91823.00
2024-01-04T05:27:40.939Z,91830.00
2024-01-04T05:28:40.937Z,91831.00
2024-01-04T05:29:40.997Z,91822.00
2024-01-04T05:30:40.997Z,91824.00
2024-01-04T05:31:40.985Z,91826.00
2024-01-04T05:32:41.060Z,91819.00
2024-01-04T05:33:41.082Z,91828.00
2024-01-04T05:34:41.038Z,91827.00
2024-01-04T05:35:41.000Z,91812.00
2024-01-04T05:36:40.997Z,91821.00
2024-01-04T05:37:41.001Z,91824.00
2024-01-04T05:38:41.031Z,91828.00
2024-01-04T05:39:41.015Z,91829.00
2024-01-04T05:40:41.013Z,91831.00
2024-01-04T05:41:41.082Z,91830.00
2024-01-04T05:42:41.062Z,91840.00
2024-01-04T05:43:41.032Z,91845.00
2024-01-04T05:44:41.059Z,91848.00
2024-01-04T05:45:41.033Z,91853.00
2024-01-04T05:46:41.064Z,91856.00
2024-01-04T05:47:41.142Z,91867.00
2024-01-04T05:48:41.190Z,91866.00
2024-01-04T05:49:41.189Z,91862.00
2024-01-04T05:50:41.212Z,91861.00
2024-01-04T05:51:42.953Z,91861.00
2024-01-04T05:52:41.229Z,91859.00
2024-01-04T05:53:41.305Z,91855.00
2024-01-04T05:54:41.293Z,91856.00
2024-01-04T05:55:41.328Z,91853.00
2024-01-04T05:56:41.405Z,91851.00
2024-01-04T05:57:41.386Z,91847.00
2024-01-04T05:58:41.409Z,91846.00
2024-01-04T05:59:41.451Z,91847.00
2024-01-04T06:00:41.530Z,91846.00
2024-01-04T06:01:41.514Z,91842.00
2024-01-04T06:02:41.597Z,91844.00
2024-01-04T06:03:41.651Z,91848.00
2024-01-04T06:04:41.580Z,91852.00
2024-01-04T06:05:41.714Z,91855.00
2024-01-04T06:06:41.684Z,91856.00
2024-01-04T06:07:41.670Z,91858.00
2024-01-04T06:08:41.725Z,91864.00
2024-01-04T06:09:41.740Z,91866.00
2024-01-04T06:10:41.766Z,91875.00
2024-01-04T06:11:41.811Z,91881.00
2024-01-04T06:12:41.805Z,91878.00
2024-01-04T06:13:41.911Z,91882.00
2024-01-04T06:14:41.935Z,91887.00
2024-01-04T06:15:41.897Z,91882.00
2024-01-04T06:16:41.933Z,91878.00
2024-01-04T06:17:42.084Z,91874.00
2024-01-04T06:18:42.134Z,91879.00
2024-01-04T06:19:42.105Z,91883.00
2024-01-04T06:20:42.075Z,91894.00
2024-01-04T06:21:42.061Z,91900.00
2024-01-04T06:22:42.083Z,91898.00
2024-01-04T06:23:42.180Z,91901.00
2024-01-04T06:24:42.158Z,91905.00
2024-01-04T06:25:42.195Z,91903.00
2024-01-04T06:26:42.250Z,91906.00
2024-01-04T06:27:42.323Z,91908.00
2024-01-04T06:28:42.282Z,91914.00
2024-01-04T06:29:42.333Z,91913.00
2024-01-04T06:30:42.384Z,91913.00
2024-01-04T06:31:42.363Z,91912.00
2024-01-04T06:32:42.636Z,91906.00
2024-01-04T06:33:42.601Z,91904.00
2024-01-04T06:34:42.580Z,91906.00
2024-01-04T06:35:42.488Z,91906.00
2024-01-04T06:36:42.492Z,91907.00
2024-01-04T06:37:42.528Z,91911.00
2024-01-04T06:38:42.622Z,91918.00
2024-01-04T06:39:42.582Z,91921.00
2024-01-04T06:40:42.619Z,91920.00
2024-01-04T06:41:42.669Z,91922.00
2024-01-04T06:42:42.657Z,91924.00
2024-01-04T06:43:42.694Z,91927.00
2024-01-04T06:44:47.339Z,91930.00
2024-01-04T06:45:43.769Z,91930.00
2024-01-04T06:46:42.724Z,91935.00
2024-01-04T06:47:42.841Z,91938.00
2024-01-04T06:48:43.007Z,91946.00
2024-01-04T06:49:43.011Z,91952.00
2024-01-04T06:50:42.862Z,91955.00
2024-01-04T06:51:42.741Z,91946.00
2024-01-04T06:52:42.751Z,91933.00
2024-01-04T06:53:42.778Z,91937.00
2024-01-04T06:54:42.783Z,91941.00
2024-01-04T06:55:42.761Z,91947.00
2024-01-04T06:56:42.790Z,91957.00
2024-01-04T06:57:42.775Z,91944.00
2024-01-04T06:58:42.774Z,91940.00
2024-01-04T06:59:42.804Z,91937.00
2024-01-04T07:00:42.903Z,91934.00
2024-01-04T07:01:42.850Z,91938.00
2024-01-04T07:02:42.814Z,91935.00
2024-01-04T07:03:42.891Z,91936.00
2024-01-04T07:04:42.804Z,91934.00
2024-01-04T07:05:42.933Z,91935.00
2024-01-04T07:06:42.814Z,91936.00
2024-01-04T07:07:42.862Z,91934.00
2024-01-04T07:08:42.930Z,91932.00
2024-01-04T07:09:42.906Z,91935.00
2024-01-04T07:10:42.924Z,91936.00
2024-01-04T07:11:42.999Z,91933.00
2024-01-04T07:12:42.983Z,91927.00
2024-01-04T07:13:43.013Z,91925.00
2024-01-04T07:14:43.089Z,91926.00
2024-01-04T07:15:43.072Z,91926.00
2024-01-04T07:16:43.100Z,91923.00
2024-01-04T07:17:43.226Z,91927.00
2024-01-04T07:18:43.265Z,91926.00
2024-01-04T07:19:43.200Z,91928.00
2024-01-04T07:20:43.322Z,91921.00
2024-01-04T07:21:43.248Z,91920.00
2024-01-04T07:22:43.299Z,91920.00
2024-01-04T07:23:43.367Z,91917.00
2024-01-04T07:24:43.333Z,91915.00
2024-01-04T07:25:43.348Z,91916.00
2024-01-04T07:26:43.383Z,91912.00
2024-01-04T07:27:44.963Z,91919.00
2024-01-04T07:28:43.368Z,91921.00
2024-01-04T07:29:43.417Z,91924.00
2024-01-04T07:30:43.756Z,91926.00
2024-01-04T07:31:43.359Z,91924.00
2024-01-04T07:32:43.467Z,91925.00
2024-01-04T07:33:43.492Z,91925.00
2024-01-04T07:34:46.007Z,91923.00
2024-01-04T07:35:43.450Z,91924.00
2024-01-04T07:36:43.377Z,91921.00
2024-01-04T07:37:43.364Z,91921.00
2024-01-04T07:38:43.395Z,91922.00
2024-01-04T07:39:43.388Z,91933.00
2024-01-04T07:40:43.383Z,91932.00
2024-01-04T07:41:43.394Z,91936.00
2024-01-04T07:42:43.388Z,91939.00
2024-01-04T07:43:43.396Z,91937.00
2024-01-04T07:44:50.531Z,91937.00
2024-01-04T07:45:44.403Z,91945.00
2024-01-04T07:46:43.420Z,91946.00
2024-01-04T07:47:43.445Z,91945.00
2024-01-04T07:48:43.524Z,91955.00
2024-01-04T07:49:43.451Z,91964.00
2024-01-04T07:50:43.406Z,91967.00
2024-01-04T07:51:43.364Z,91972.00
2024-01-04T07:52:43.363Z,91970.00
2024-01-04T07:53:43.372Z,91963.00
2024-01-04T07:54:48.466Z,91968.00
2024-01-04T07:55:44.358Z,91960.00
2024-01-04T07:56:43.435Z,91966.00
2024-01-04T07:57:43.371Z,91950.00
2024-01-04T07:58:43.360Z,91945.00
2024-01-04T07:59:43.379Z,91956.00
2024-01-04T08:00:43.369Z,91963.00
2024-01-04T08:01:43.393Z,91976.00
2024-01-04T08:02:43.391Z,91968.00
2024-01-04T08:03:43.415Z,91968.00
2024-01-04T08:04:43.374Z,91977.00
2024-01-04T08:05:43.542Z,91979.00
2024-01-04T08:06:43.498Z,91979.00
2024-01-04T08:07:43.383Z,91987.00
2024-01-04T08:08:43.418Z,91986.00
2024-01-04T08:09:43.400Z,91985.00
2024-01-04T08:10:43.379Z,91981.00
2024-01-04T08:11:43.436Z,91972.00
2024-01-04T08:12:43.682Z,91972.00
2024-01-04T08:13:43.384Z,91982.00
2024-01-04T08:14:43.457Z,91982.00
2024-01-04T08:15:43.390Z,91981.00
2024-01-04T08:16:43.377Z,91981.00
2024-01-04T08:17:43.520Z,91984.00
2024-01-04T08:18:43.484Z,91986.00
2024-01-04T08:19:43.503Z,91986.00
2024-01-04T08:20:43.488Z,91986.00
2024-01-04T08:21:43.466Z,91984.00
2024-01-04T08:22:43.416Z,91985.00
2024-01-04T08:23:43.503Z,91981.00
2024-01-04T08:24:43.452Z,91977.00
2024-01-04T08:25:43.417Z,91982.00
2024-01-04T08:26:43.507Z,91982.00
2024-01-04T08:27:43.428Z,91978.00
2024-01-04T08:28:43.433Z,91983.00
2024-01-04T08:29:43.476Z,91986.00
2024-01-04T08:30:43.583Z,91983.00
2024-01-04T08:31:43.570Z,91982.00
2024-01-04T08:32:43.626Z,91982.00
2024-01-04T08:33:43.668Z,91987.00
2024-01-04T08:34:43.622Z,91982.00
2024-01-04T08:35:43.661Z,91984.00
2024-01-04T08:36:43.657Z,91985.00
2024-01-04T08:37:43.694Z,91981.00
2024-01-04T08:38:43.741Z,91980.00
2024-01-04T08:39:44.127Z,91973.00
2024-01-04T08:40:43.793Z,91973.00
2024-01-04T08:41:43.844Z,91974.00
2024-01-04T08:42:43.859Z,91971.00
2024-01-04T08:43:43.895Z,91970.00
2024-01-04T08:44:43.932Z,91972.00
2024-01-04T08:45:43.961Z,91977.00
2024-01-04T08:46:43.989Z,91975.00
2024-01-04T08:47:44.102Z,91979.00
2024-01-04T08:48:44.263Z,91979.00
2024-01-04T08:49:44.204Z,91978.00
2024-01-04T08:50:44.355Z,91981.00
2024-01-04T08:51:44.205Z,91984.00
2024-01-04T08:52:44.162Z,91993.00
2024-01-04T08:53:44.191Z,91996.00
2024-01-04T08:54:44.234Z,91996.00
2024-01-04T08:55:44.259Z,91995.00
2024-01-04T08:56:44.375Z,91999.00
2024-01-04T08:57:44.319Z,91997.00
2024-01-04T08:58:44.343Z,91997.00
2024-01-04T08:59:44.429Z,91990.00
2024-01-04T09:00:44.429Z,91989.00
2024-01-04T09:01:44.428Z,91993.00
2024-01-04T09:02:44.573Z,91998.00
2024-01-04T09:03:44.574Z,91997.00
2024-01-04T09:04:44.621Z,92013.00
2024-01-04T09:05:44.600Z,92010.00
2024-01-04T09:06:44.581Z,92007.00
2024-01-04T09:07:44.604Z,92011.00
2024-01-04T09:08:44.670Z,92012.00
2024-01-04T09:09:44.671Z,92015.00
2024-01-04T09:10:44.703Z,92012.00
2024-01-04T09:11:44.800Z,92013.00
2024-01-04T09:12:46.720Z,92014.00
2024-01-04T09:13:44.763Z,92016.00
2024-01-04T09:14:44.848Z,92017.00
2024-01-04T09:15:44.813Z,92018.00
2024-01-04T09:16:44.865Z,92021.00
2024-01-04T09:17:45.052Z,92029.00
2024-01-04T09:18:45.028Z,92029.00
2024-01-04T09:19:45.141Z,92034.00
2024-01-04T09:20:44.990Z,92033.00
2024-01-04T09:21:45.006Z,92036.00
2024-01-04T09:22:45.055Z,92035.00
2024-01-04T09:23:45.072Z,92034.00
2024-01-04T09:24:45.084Z,92033.00
2024-01-04T09:25:45.112Z,92037.00
2024-01-04T09:26:45.138Z,92039.00
2024-01-04T09:27:45.159Z,92042.00
2024-01-04T09:28:45.186Z,92049.00
2024-01-04T09:29:45.250Z,92056.00
2024-01-04T09:30:45.272Z,92059.00
2024-01-04T09:31:45.266Z,92060.00
2024-01-04T09:32:45.388Z,92061.00
2024-01-04T09:33:45.420Z,92064.00
2024-01-04T09:34:45.381Z,92062.00
2024-01-04T09:35:45.371Z,92059.00
2024-01-04T09:36:45.391Z,92054.00
2024-01-04T09:37:45.388Z,92046.00
2024-01-04T09:38:45.459Z,92042.00
2024-01-04T09:39:45.447Z,92040.00
2024-01-04T09:40:45.461Z,92043.00
2024-01-04T09:41:45.552Z,92039.00
2024-01-04T09:42:45.517Z,92036.00
2024-01-04T09:43:45.636Z,92034.00
2024-01-04T09:44:45.591Z,92034.00
2024-01-04T09:45:45.615Z,92035.00
2024-01-04T09:46:45.617Z,92037.00
2024-01-04T09:47:45.697Z,92037.00
2024-01-04T09:48:45.798Z,92038.00
2024-01-04T09:49:45.871Z,92039.00
2024-01-04T09:50:45.828Z,92041.00
2024-01-04T09:51:45.748Z,92039.00
2024-01-04T09:52:45.751Z,92043.00
2024-01-04T09:53:45.792Z,92047.00
2024-01-04T09:54:45.803Z,92051.00
2024-01-04T09:55:46.518Z,92047.00
2024-01-04T09:56:45.919Z,92044.00
2024-01-04T09:57:45.897Z,92045.00
2024-01-04T09:58:45.900Z,92049.00
2024-01-04T09:59:45.974Z,92055.00
2024-01-04T10:00:45.986Z,92062.00
2024-01-04T10:01:45.956Z,92066.00
2024-01-04T10:02:46.104Z,92077.00
2024-01-04T10:03:46.089Z,92074.00
2024-01-04T10:04:46.029Z,92075.00
2024-01-04T10:05:46.209Z,92071.00
2024-01-04T10:06:46.182Z,92074.00
2024-01-04T10:07:46.082Z,92076.00
2024-01-04T10:08:46.128Z,92076.00
2024-01-04T10:09:46.128Z,92080.00
2024-01-04T10:10:46.155Z,92084.00
2024-01-04T10:11:46.219Z,92090.00
2024-01-04T10:12:46.266Z,92089.00
2024-01-04T10:13:46.234Z,92096.00
2024-01-04T10:14:46.340Z,92096.00
2024-01-04T10:15:46.275Z,92101.00
2024-01-04T10:16:46.306Z,92109.00
2024-01-04T10:17:46.453Z,92108.00
2024-01-04T10:18:46.459Z,92113.00
2024-01-04T10:19:46.415Z,92115.00
2024-01-04T10:20:46.423Z,92118.00
2024-01-04T10:21:47.609Z,92120.00
2024-01-04T10:22:46.467Z,92118.00
2024-01-04T10:23:46.491Z,92114.00
2024-01-04T10:24:46.571Z,92115.00
2024-01-04T10:25:46.541Z,92114.00
2024-01-04T10:26:46.581Z,92113.00
2024-01-04T10:27:46.588Z,92113.00
2024-01-04T10:28:46.631Z,92116.00
2024-01-04T10:29:46.684Z,92116.00
2024-01-04T10:30:46.789Z,92120.00
2024-01-04T10:31:46.697Z,92120.00
2024-01-04T10:32:46.750Z,92118.00
2024-01-04T10:33:46.886Z,92111.00
2024-01-04T10:34:46.812Z,92107.00
2024-01-04T10:35:46.818Z,92105.00
2024-01-04T10:36:46.842Z,92109.00
2024-01-04T10:37:46.845Z,92112.00
2024-01-04T10:38:46.884Z,92119.00
2024-01-04T10:39:47.275Z,92124.00
2024-01-04T10:40:46.930Z,92126.00
2024-01-04T10:41:46.992Z,92127.00
2024-01-04T10:42:46.975Z,92128.00
2024-01-04T10:43:47.003Z,92128.00
2024-01-04T10:44:47.198Z,92127.00
2024-01-04T10:45:47.053Z,92130.00
2024-01-04T10:46:47.076Z,92130.00
2024-01-04T10:47:47.199Z,92128.00
2024-01-04T10:48:47.227Z,92128.00
2024-01-04T10:49:47.279Z,92128.00
2024-01-04T10:50:47.202Z,92129.00
2024-01-04T10:51:47.220Z,92134.00
2024-01-04T10:52:47.228Z,92138.00
2024-01-04T10:53:47.284Z,92142.00
2024-01-04T10:54:47.296Z,92144.00
2024-01-04T10:55:47.316Z,92146.00
2024-01-04T10:56:47.373Z,92148.00
2024-01-04T10:57:47.375Z,92149.00
2024-01-04T10:58:47.399Z,92150.00
2024-01-04T10:59:47.497Z,92150.00
2024-01-04T11:00:47.481Z,92151.00
2024-01-04T11:01:47.496Z,92151.00
2024-01-04T11:02:47.561Z,92155.00
2024-01-04T11:03:47.594Z,92152.00
2024-01-04T11:04:47.591Z,92151.00
2024-01-04T11:05:47.695Z,92148.00
2024-01-04T11:06:47.627Z,92150.00
2024-01-04T11:07:47.660Z,92151.00
2024-01-04T11:08:47.713Z,92150.00
2024-01-04T11:09:47.710Z,92150.00
2024-01-04T11:10:47.733Z,92146.00
2024-01-04T11:11:47.782Z,92146.00
2024-01-04T11:12:47.802Z,92150.00
2024-01-04T11:13:47.817Z,92150.00
2024-01-04T11:14:47.877Z,92146.00
2024-01-04T11:15:47.875Z,92143.00
2024-01-04T11:16:47.898Z,92140.00
2024-01-04T11:17:48.069Z,92137.00
2024-01-04T11:18:48.079Z,92136.00
2024-01-04T11:19:48.621Z,92136.00
2024-01-04T11:20:48.109Z,92134.00
2024-01-04T11:21:48.041Z,92131.00
2024-01-04T11:22:48.101Z,92127.00
2024-01-04T11:23:48.122Z,92126.00
2024-01-04T11:24:48.109Z,92122.00
2024-01-04T11:25:48.152Z,92119.00
2024-01-04T11:26:48.375Z,92112.00
2024-01-04T11:27:48.197Z,92106.00
2024-01-04T11:28:48.245Z,92098.00
2024-01-04T11:29:48.267Z,92098.00
2024-01-04T11:30:48.374Z,92099.00
2024-01-04T11:31:48.319Z,92102.00
2024-01-04T11:33:48.460Z,92099.00
2024-01-04T11:34:48.521Z,92095.00
2024-01-04T11:35:48.449Z,92098.00
2024-01-04T11:36:48.410Z,92101.00
2024-01-04T11:37:48.435Z,92104.00
2024-01-04T11:38:48.533Z,92102.00
2024-01-04T11:39:48.489Z,92097.00
2024-01-04T11:40:48.517Z,92093.00
2024-01-04T11:41:48.562Z,92090.00
2024-01-04T11:42:48.546Z,92086.00
2024-01-04T11:43:48.573Z,92082.00
2024-01-04T11:44:48.615Z,92079.00
2024-01-04T11:45:48.609Z,92074.00